気象予報士の航空気象 春の嵐

*All archives   *Admin

スポンサーサイト

上記の広告は1ヶ月以上更新のないブログに表示されています。
新しい記事を書く事で広告が消せます。
--:--  |  スポンサー広告  |  EDIT  |  Top↑

2015.04.03 (Fri)

春の嵐

午前中、温暖前線による降雨の後、南よりの風が強くなり始めました。

RJTT 030700Z 21029G40KT 9999 FEW014 BKN150 BKN170 20/17 Q1005 NOSIG RMK 2ST014 6AC150 7AC170 A2969

RJAA 030630Z 21020G33KT 170V240 9999 BLDU SCT020 BKN030 21/16 Q1005 WS R16R WS R16L NOSIG RMK 3SC020 7SC030 A2969 4500NE

地表から1000-2000mあたりで風が強く、地表面で吹く風のため、大揺れ。

着陸復行、管制の混雑による上空待機、目的地変更、欠航につながります。
スポンサーサイト
17:01  |  未分類  |  TB(0)  |  CM(0)  |  EDIT  |  Top↑

コメントを投稿する


 管理者だけに表示  (非公開コメント投稿可能)

▲PageTop

この記事のトラックバックURL

→http://weathereucalyptus.blog115.fc2.com/tb.php/677-21f8b113
この記事にトラックバックする(FC2ブログユーザー)

この記事へのトラックバック

▲PageTop

 | BLOGTOP | 
上記広告は1ヶ月以上更新のないブログに表示されています。新しい記事を書くことで広告を消せます。